Time;durP1;ratioP1;P1;durP2;ratioP2;P2;SDS_P1;SDS_P2;PMS_P1;PMS_P2;Temp;Humidity;BMP_temperature;BMP_pressure;BME280_temperature;BME280_humidity;BME280_pressure;Samples;Min_cycle;Max_cycle;Signal;HPM_P1;HPM_P2
2023/04/14 00:00:35;;;;;;;39.50;24.53;;;;;;;7.68;81.75;99785.11;123722;1102;104268;-79
2023/04/14 00:03:20;;;;;;;39.30;23.60;;;;;;;7.65;82.13;99785.00;123997;1099;104345;-77
2023/04/14 00:05:51;;;;;;;39.70;23.53;;;;;;;7.65;81.95;99785.91;123563;1099;104227;-79
2023/04/14 00:08:22;;;;;;;40.70;23.50;;;;;;;7.65;82.28;99793.75;123904;1099;104274;-79
2023/04/14 00:10:53;;;;;;;39.85;23.95;;;;;;;7.62;82.08;99793.63;123636;1099;104274;-79
2023/04/14 00:13:25;;;;;;;40.60;23.43;;;;;;;7.56;82.09;99791.67;123736;1100;104326;-80
2023/04/14 00:15:56;;;;;;;40.33;23.07;;;;;;;7.54;82.38;99790.74;123973;1099;104284;-80
2023/04/14 00:18:33;;;;;;;39.60;23.47;;;;;;;7.49;82.98;99787.05;124054;1099;104350;-81
2023/04/14 00:21:05;;;;;;;38.90;23.67;;;;;;;7.44;83.14;99782.52;123960;1099;104245;-79
2023/04/14 00:23:36;;;;;;;38.97;22.90;;;;;;;7.42;82.52;99781.55;123651;1099;104226;-79
2023/04/14 00:26:07;;;;;;;39.47;22.57;;;;;;;7.42;82.76;99786.77;123845;1099;104331;-81
2023/04/14 00:28:39;;;;;;;36.60;22.27;;;;;;;7.38;82.53;99788.39;123559;1099;104368;-79
2023/04/14 00:31:10;;;;;;;39.27;22.50;;;;;;;7.32;82.55;99789.07;123570;1099;104274;-80
2023/04/14 00:33:41;;;;;;;36.87;21.67;;;;;;;7.31;83.08;99794.23;123648;1099;104310;-79
2023/04/14 00:36:12;;;;;;;38.00;23.93;;;;;;;7.30;82.99;99795.05;123698;1099;104351;-79
2023/04/14 00:38:44;;;;;;;40.10;23.43;;;;;;;7.29;83.14;99788.05;124267;1099;104243;-80
2023/04/14 00:41:15;;;;;;;39.27;22.33;;;;;;;7.27;83.28;99794.94;123788;1099;104297;-80
2023/04/14 00:43:47;;;;;;;36.30;22.90;;;;;;;7.28;83.30;99791.51;123980;1099;104245;-78
2023/04/14 00:46:18;;;;;;;38.03;22.50;;;;;;;7.26;83.05;99790.54;123644;1099;104384;-80
2023/04/14 00:48:49;;;;;;;36.27;21.47;;;;;;;7.25;83.60;99788.78;123924;1099;104331;-79
2023/04/14 00:51:21;;;;;;;38.93;21.93;;;;;;;7.23;83.19;99785.20;123587;1099;104329;-80
2023/04/14 00:53:54;;;;;;;37.33;21.93;;;;;;;7.20;83.02;99784.27;123714;1099;104348;-79
2023/04/14 00:56:26;;;;;;;37.10;21.03;;;;;;;7.20;83.63;99788.61;123903;1099;104834;-80
2023/04/14 00:58:59;;;;;;;36.25;22.05;;;;;;;7.16;83.06;99792.80;123653;1099;104274;-80
2023/04/14 01:01:32;;;;;;;33.80;20.43;;;;;;;7.10;83.79;99792.56;123996;1098;104265;-80
2023/04/14 01:04:04;;;;;;;36.37;21.40;;;;;;;7.06;84.59;99795.91;124135;1099;104383;-79
2023/04/14 01:06:35;;;;;;;35.60;21.27;;;;;;;6.99;84.60;99794.76;124175;1099;104242;-82
2023/04/14 01:09:08;;;;;;;35.93;20.77;;;;;;;6.93;84.65;99798.86;124047;1099;104219;-80
2023/04/14 01:11:49;;;;;;;33.77;20.07;;;;;;;6.90;84.36;99790.91;123829;1099;104245;-82
2023/04/14 01:14:33;;;;;;;35.60;21.45;;;;;;;6.87;84.19;99803.83;123924;1099;104248;-80
2023/04/14 01:17:13;;;;;;;35.23;21.27;;;;;;;6.84;84.24;99805.50;123723;1102;104328;-80
2023/04/14 01:20:03;;;;;;;36.27;20.80;;;;;;;6.82;84.58;99807.17;123665;1100;104382;-81
2023/04/14 01:22:39;;;;;;;33.30;20.03;;;;;;;6.81;84.17;99817.54;123860;1100;104277;-79
2023/04/14 01:25:33;;;;;;;37.40;22.30;;;;;;;6.79;84.50;99812.27;123834;1099;104269;-79
2023/04/14 01:28:27;;;;;;;37.83;21.43;;;;;;;6.77;84.10;99819.11;123556;1099;104296;-80
2023/04/14 01:31:20;;;;;;;40.17;21.97;;;;;;;6.80;84.55;99829.66;123685;1099;104325;-79
2023/04/14 01:33:57;;;;;;;35.47;21.30;;;;;;;6.84;84.45;99821.15;123599;1099;104320;-79
2023/04/14 01:36:40;;;;;;;36.00;21.07;;;;;;;6.84;84.56;99818.54;123799;1099;104175;-78
2023/04/14 01:39:14;;;;;;;37.23;22.20;;;;;;;6.86;84.73;99815.08;123508;1099;104354;-79
2023/04/14 01:41:49;;;;;;;37.20;20.40;;;;;;;6.86;84.47;99817.69;123665;1099;104310;-80
2023/04/14 01:44:22;;;;;;;37.07;21.47;;;;;;;6.79;84.69;99817.48;123968;1099;104356;-78
2023/04/14 01:46:57;;;;;;;38.17;21.40;;;;;;;6.76;84.65;99826.88;123553;1099;104313;-78
2023/04/14 01:49:32;;;;;;;38.67;22.17;;;;;;;6.70;84.71;99824.93;123695;1099;104278;-79
2023/04/14 01:52:06;;;;;;;37.03;21.97;;;;;;;6.64;84.55;99824.69;123732;1099;104246;-79
2023/04/14 01:54:40;;;;;;;36.40;21.53;;;;;;;6.58;84.68;99820.09;123574;1099;104278;-79
2023/04/14 01:57:11;;;;;;;;;;;;;;;6.53;85.98;99819.03;123656;1099;104370;-79
2023/04/14 01:59:47;;;;;;;36.90;22.07;;;;;;;6.46;85.06;99815.26;123705;1099;104322;-81
2023/04/14 02:02:20;;;;;;;39.33;23.17;;;;;;;6.43;85.24;99816.86;123770;1099;104419;-78
2023/04/14 02:04:52;;;;;;;39.57;23.00;;;;;;;6.36;84.96;99813.12;123681;1099;104293;-78
2023/04/14 02:07:25;;;;;;;37.90;23.55;;;;;;;6.35;84.90;99811.33;123626;1099;104692;-79
2023/04/14 02:09:58;;;;;;;37.10;23.53;;;;;;;6.35;84.94;99813.94;123617;1100;104239;-79
2023/04/14 02:12:32;;;;;;;41.93;24.03;;;;;;;6.34;85.56;99811.27;123613;1099;104342;-79
2023/04/14 02:15:04;;;;;;;41.60;24.50;;;;;;;6.33;85.34;99814.69;123717;1099;104277;-79
2023/04/14 02:17:35;;;;;;;40.20;23.67;;;;;;;6.30;85.44;99807.65;123682;1099;104275;-78
2023/04/14 02:20:09;;;;;;;42.97;23.87;;;;;;;6.23;85.36;99816.02;123629;1099;104354;-80
2023/04/14 02:22:41;;;;;;;37.17;22.70;;;;;;;6.19;85.18;99811.53;123818;1099;104374;-79
2023/04/14 02:25:12;;;;;;;40.45;22.05;;;;;;;6.14;85.56;99816.55;123939;1099;104351;-79
2023/04/14 02:27:49;;;;;;;36.57;21.60;;;;;;;6.09;85.25;99805.94;123890;1099;104348;-79
2023/04/14 02:30:24;;;;;;;41.63;21.40;;;;;;;6.06;85.25;99811.01;123711;1099;104255;-80
2023/04/14 02:33:01;;;;;;;37.70;22.60;;;;;;;6.05;85.63;99813.55;123821;1099;104287;-80
2023/04/14 02:35:38;;;;;;;38.33;22.33;;;;;;;6.05;85.57;99810.94;123681;1099;104648;-81
2023/04/14 02:38:18;;;;;;;36.57;21.57;;;;;;;6.03;85.54;99810.87;123726;1099;104679;-79
2023/04/14 02:40:51;;;;;;;35.83;22.17;;;;;;;6.01;85.84;99801.20;123884;1099;104271;-79
2023/04/14 02:43:38;;;;;;;39.10;21.40;;;;;;;6.00;85.93;99807.23;123758;1100;104316;-79
2023/04/14 02:46:11;;;;;;;34.33;20.90;;;;;;;5.99;85.87;99805.47;123765;1102;104224;-80
2023/04/14 02:48:46;;;;;;;35.23;21.43;;;;;;;6.01;85.84;99811.63;123691;1099;104278;-81
2023/04/14 02:51:19;;;;;;;35.10;21.00;;;;;;;6.00;85.81;99805.53;123691;1099;104242;-80
2023/04/14 02:53:51;;;;;;;38.43;21.23;;;;;;;5.98;86.14;99807.16;123740;1099;104708;-80
2023/04/14 02:56:38;;;;;;;38.80;21.53;;;;;;;5.95;86.04;99809.60;123776;1099;104268;-80
2023/04/14 02:59:11;;;;;;;38.00;21.70;;;;;;;5.94;85.96;99820.86;124130;1099;104239;-79
2023/04/14 03:01:50;;;;;;;37.03;21.97;;;;;;;5.95;86.20;99817.41;123745;1099;104356;-80
2023/04/14 03:04:23;;;;;;;39.05;22.05;;;;;;;5.99;86.26;99821.98;123742;1100;104349;-80
2023/04/14 03:06:56;;;;;;;37.77;22.43;;;;;;;6.03;86.21;99823.91;123874;1099;104306;-80
2023/04/14 03:09:29;;;;;;;35.55;20.57;;;;;;;6.03;86.38;99822.98;123873;1099;104364;-79
2023/04/14 03:12:03;;;;;;;34.75;20.95;;;;;;;6.04;86.66;99830.87;123816;1099;104274;-80
2023/04/14 03:14:36;;;;;;;39.17;20.90;;;;;;;6.05;86.58;99818.76;123895;1099;104328;-79
2023/04/14 03:17:10;;;;;;;37.30;21.03;;;;;;;6.05;86.76;99822.23;123883;1099;104377;-79
2023/04/14 03:19:42;;;;;;;34.87;20.30;;;;;;;6.04;86.63;99823.05;123946;1099;104303;-80
2023/04/14 03:22:15;;;;;;;34.57;19.67;;;;;;;6.02;86.60;99826.44;123988;1099;104210;-80
2023/04/14 03:24:48;;;;;;;33.67;19.50;;;;;;;5.98;87.03;99828.00;123900;1099;104257;-80
2023/04/14 03:27:26;;;;;;;35.70;19.87;;;;;;;5.93;86.79;99826.88;124046;1102;104352;-81
2023/04/14 03:30:02;;;;;;;34.97;19.80;;;;;;;5.90;86.62;99839.77;123915;1099;104222;-80
2023/04/14 03:32:40;;;;;;;34.13;20.13;;;;;;;5.86;86.92;99838.76;123903;1099;104275;-81
2023/04/14 03:35:14;;;;;;;36.37;21.67;;;;;;;5.84;86.98;99839.50;123974;1099;110276;-80
2023/04/14 03:37:48;;;;;;;34.40;19.87;;;;;;;5.82;87.12;99836.83;123851;1099;104367;-80
2023/04/14 03:40:20;;;;;;;39.93;20.37;;;;;;;5.85;86.99;99836.09;123901;1099;104288;-80
2023/04/14 03:42:52;;;;;;;36.00;20.77;;;;;;;5.90;87.29;99839.77;123919;1099;104651;-80
2023/04/14 03:45:25;;;;;;;36.50;21.23;;;;;;;5.94;87.06;99834.77;123974;1099;104223;-79
2023/04/14 03:48:04;;;;;;;35.97;20.40;;;;;;;6.00;87.41;99839.39;124199;1099;104271;-82
2023/04/14 03:50:41;;;;;;;37.40;20.37;;;;;;;6.04;87.29;99838.68;123820;1099;104299;-80
2023/04/14 03:53:16;;;;;;;34.57;21.07;;;;;;;6.05;87.55;99837.88;123936;1099;104271;-79
2023/04/14 03:55:51;;;;;;;38.23;20.90;;;;;;;6.06;87.28;99850.08;123772;1099;104380;-80
2023/04/14 03:58:24;;;;;;;40.63;20.23;;;;;;;6.08;87.35;99851.02;124244;1099;104367;-79
2023/04/14 04:00:57;;;;;;;41.83;20.87;;;;;;;6.07;87.35;99846.63;123995;1099;104344;-80
2023/04/14 04:03:29;;;;;;;49.17;21.63;;;;;;;6.05;87.40;99850.89;124419;1099;104257;-78
2023/04/14 04:06:02;;;;;;;39.48;20.80;;;;;;;6.03;87.53;99849.95;123741;1099;118541;-80
2023/04/14 04:08:36;;;;;;;39.70;20.30;;;;;;;6.03;87.52;99855.16;123799;1099;104319;-80
2023/04/14 04:11:10;;;;;;;34.97;20.50;;;;;;;6.03;87.66;99851.64;123702;1099;104278;-78
2023/04/14 04:13:43;;;;;;;35.23;21.27;;;;;;;6.04;87.64;99850.83;124063;1099;104214;-78
2023/04/14 04:16:16;;;;;;;37.03;21.40;;;;;;;6.10;88.03;99854.58;123795;1099;104245;-79
2023/04/14 04:18:50;;;;;;;34.63;20.30;;;;;;;6.09;87.93;99860.63;123861;1099;104434;-79
2023/04/14 04:21:30;;;;;;;37.37;20.93;;;;;;;6.09;87.91;99854.51;123588;1099;104383;-78
2023/04/14 04:24:04;;;;;;;38.03;21.17;;;;;;;6.13;87.96;99858.16;124158;1099;104441;-80
2023/04/14 04:26:35;;;;;;;;;;;;;;;6.15;88.57;99859.98;123994;1099;104309;-80
2023/04/14 04:29:07;;;;;;;37.23;19.50;;;;;;;6.16;88.16;99864.38;124326;1099;104255;-77
2023/04/14 04:31:39;;;;;;;34.70;19.93;;;;;;;6.16;88.43;99859.17;124074;1100;104348;-81
2023/04/14 04:34:11;;;;;;;34.33;20.20;;;;;;;6.18;88.79;99869.66;124196;1099;104373;-79
2023/04/14 04:36:43;;;;;;;33.60;19.97;;;;;;;6.23;88.49;99870.73;124160;1100;104171;-77
2023/04/14 04:39:14;;;;;;;36.60;19.63;;;;;;;6.29;88.56;99871.00;123877;1099;104347;-80
2023/04/14 04:41:50;;;;;;;35.47;20.40;;;;;;;6.35;88.43;99865.17;124081;1102;102029;-79
2023/04/14 04:44:22;;;;;;;34.43;19.77;;;;;;;6.42;88.71;99857.67;124089;1099;104304;-78
2023/04/14 04:46:54;;;;;;;37.40;20.10;;;;;;;6.47;88.68;99868.30;124014;1099;104297;-81
2023/04/14 04:49:30;;;;;;;31.20;17.65;;;;;;;6.55;88.68;99866.02;124201;1099;104252;-79
2023/04/14 04:52:06;;;;;;;30.00;17.40;;;;;;;6.54;88.78;99864.22;124002;1102;104256;-81
2023/04/14 04:54:37;;;;;;;28.57;17.03;;;;;;;6.57;88.74;99864.34;124162;1099;104203;-84
2023/04/14 04:57:08;;;;;;;31.27;18.00;;;;;;;6.59;88.54;99857.47;123962;1099;117959;-77
2023/04/14 04:59:39;;;;;;;32.07;18.07;;;;;;;6.64;88.79;99862.06;123847;1099;104296;-77
2023/04/14 05:02:11;;;;;;;33.20;17.85;;;;;;;6.70;88.67;99861.44;123864;1099;104252;-77
2023/04/14 05:04:42;;;;;;;31.70;17.77;;;;;;;6.75;88.82;99870.33;124230;1099;102489;-78
2023/04/14 05:07:14;;;;;;;33.10;17.80;;;;;;;6.83;89.26;99870.64;124169;1099;104273;-81
2023/04/14 05:09:45;;;;;;;34.17;19.50;;;;;;;6.90;89.76;99880.47;124406;1099;104271;-79
2023/04/14 05:12:18;;;;;;;34.63;18.40;;;;;;;6.97;89.07;99876.41;124465;1099;103069;-80
2023/04/14 05:14:50;;;;;;;30.53;17.87;;;;;;;7.02;89.73;99877.48;124855;1099;104198;-78
2023/04/14 05:17:22;;;;;;;33.07;18.17;;;;;;;7.13;89.53;99875.30;124384;1100;104249;-81
2023/04/14 05:19:53;;;;;;;33.83;18.47;;;;;;;7.21;89.37;99876.48;126189;1099;102821;-81
2023/04/14 05:22:25;;;;;;;31.33;18.20;;;;;;;7.29;89.50;99882.00;126168;1099;102646;-80
2023/04/14 05:24:56;;;;;;;31.40;17.83;;;;;;;7.37;89.67;99880.59;126131;1099;101895;-83
2023/04/14 05:27:28;;;;;;;29.43;17.17;;;;;;;7.48;89.53;99873.14;117420;1099;10000970;-82
2023/04/14 05:30:00;;;;;;;31.60;18.47;;;;;;;7.58;89.44;99869.19;124788;1102;104386;-83
2023/04/14 05:32:31;;;;;;;31.77;18.23;;;;;;;7.70;89.29;99872.25;124950;1099;103147;-82
2023/04/14 05:35:06;;;;;;;34.17;17.53;;;;;;;7.81;89.61;99863.08;125146;1099;104176;-82
2023/04/14 05:37:38;;;;;;;30.40;17.60;;;;;;;7.92;89.33;99866.09;124973;1099;104281;-84
2023/04/14 05:40:12;;;;;;;31.83;17.83;;;;;;;8.02;89.71;99873.40;124945;1099;104319;-79
2023/04/14 05:42:46;;;;;;;32.33;18.85;;;;;;;8.14;89.24;99866.86;124914;1099;104386;-81
2023/04/14 05:45:17;;;;;;;33.08;19.12;;;;;;;8.26;89.88;99875.12;125186;1099;102586;-80
2023/04/14 05:47:50;;;;;;;31.60;18.77;;;;;;;8.39;89.55;99879.92;125211;1099;102874;-81
2023/04/14 05:50:21;;;;;;;33.77;18.50;;;;;;;8.54;89.25;99878.70;125145;1099;104143;-79
2023/04/14 05:52:53;;;;;;;31.83;18.30;;;;;;;8.67;89.76;99872.18;124824;1099;103986;-78
2023/04/14 05:55:25;;;;;;;31.93;16.77;;;;;;;8.79;89.12;99869.97;124886;1099;104166;-74
2023/04/14 05:57:57;;;;;;;29.80;17.13;;;;;;;8.91;88.99;99875.60;124922;1098;104309;-78
2023/04/14 06:00:30;;;;;;;30.27;18.50;;;;;;;9.02;89.25;99870.69;124755;1099;104205;-76
2023/04/14 06:03:05;;;;;;;29.43;17.20;;;;;;;9.15;89.42;99867.62;125029;1099;104233;-78
2023/04/14 06:05:37;;;;;;;30.27;18.47;;;;;;;9.28;89.20;99870.63;124730;1099;104278;-79
2023/04/14 06:08:15;;;;;;;34.43;17.40;;;;;;;9.39;89.71;99863.98;125095;1099;102571;-74
2023/04/14 06:10:48;;;;;;;29.40;17.13;;;;;;;9.55;89.33;99865.31;125039;1099;104200;-80
2023/04/14 06:13:21;;;;;;;30.10;16.20;;;;;;;9.70;89.28;99854.41;124677;1099;104373;-79
2023/04/14 06:15:54;;;;;;;30.20;15.97;;;;;;;9.82;89.43;99854.77;125100;1099;102294;-76
2023/04/14 06:18:26;;;;;;;29.27;15.87;;;;;;;9.96;88.65;99849.91;124988;1099;102007;-76
2023/04/14 06:20:59;;;;;;;33.43;17.43;;;;;;;10.13;89.10;99845.13;125210;1099;104711;-80
2023/04/14 06:23:31;;;;;;;29.12;16.23;;;;;;;10.25;89.35;99842.84;125484;1099;104246;-80
2023/04/14 06:26:04;;;;;;;28.07;15.40;;;;;;;10.42;88.83;99843.31;125210;1099;103344;-80
2023/04/14 06:28:37;;;;;;;31.83;16.07;;;;;;;10.58;89.04;99839.34;125105;1099;103805;-80
2023/04/14 06:31:09;;;;;;;29.63;16.73;;;;;;;10.70;89.36;99827.36;125309;1099;102647;-78
2023/04/14 06:33:44;;;;;;;32.53;16.57;;;;;;;10.86;89.25;99831.23;124805;1102;102188;-77
2023/04/14 06:36:23;;;;;;;28.67;14.80;;;;;;;11.04;89.27;99830.79;125333;1097;102872;-80
2023/04/14 06:38:57;;;;;;;24.97;12.50;;;;;;;11.20;89.17;99840.77;125143;1099;104392;-78
2023/04/14 06:41:28;;;;;;;28.67;14.50;;;;;;;11.31;88.55;99831.42;125034;1099;102631;-78
2023/04/14 06:44:00;;;;;;;25.70;13.60;;;;;;;11.39;88.49;99826.33;125219;1099;104169;-79
2023/04/14 06:46:34;;;;;;;25.80;12.97;;;;;;;11.58;88.54;99837.23;125929;1099;104341;-78
2023/04/14 06:49:08;;;;;;;31.07;14.43;;;;;;;11.72;88.25;99825.26;125448;1099;104172;-79
2023/04/14 06:51:40;;;;;;;22.53;11.67;;;;;;;11.89;88.90;99828.23;125086;1099;104283;-79
2023/04/14 06:54:17;;;;;;;25.20;11.37;;;;;;;12.05;88.27;99829.44;124813;1102;104270;-79
2023/04/14 06:56:50;;;;;;;24.93;12.27;;;;;;;12.17;88.52;99824.41;124945;1102;104245;-81
2023/04/14 06:59:26;;;;;;;26.47;12.47;;;;;;;12.32;86.97;99823.78;124977;1100;102013;-77
2023/04/14 07:01:58;;;;;;;28.65;11.80;;;;;;;12.48;87.94;99821.41;124775;1099;103783;-76
2023/04/14 07:04:30;;;;;;;24.80;12.13;;;;;;;12.63;87.41;99828.70;124644;1102;104425;-74
2023/04/14 07:07:05;;;;;;;22.80;11.03;;;;;;;12.75;87.45;99821.88;124827;1099;102217;-78
2023/04/14 07:09:36;;;;;;;20.63;11.13;;;;;;;12.89;87.46;99826.48;125094;1099;102913;-77
2023/04/14 07:12:16;;;;;;;23.87;11.57;;;;;;;13.04;87.18;99823.18;125256;1099;104205;-74
2023/04/14 07:14:51;;;;;;;21.63;11.23;;;;;;;13.19;86.81;99823.41;125255;1099;103057;-75
2023/04/14 07:17:22;;;;;;;26.00;12.20;;;;;;;13.31;87.31;99814.80;124982;1099;103679;-75
2023/04/14 07:19:57;;;;;;;25.50;12.30;;;;;;;13.45;86.95;99812.38;125005;1099;104185;-76
2023/04/14 07:22:26;;;;;;;;;;;;;;;13.64;84.33;99817.00;125316;1099;104200;-78
2023/04/14 07:24:58;;;;;;;26.77;13.23;;;;;;;13.80;84.37;99809.28;124687;1099;104204;-76
2023/04/14 07:27:32;;;;;;;26.27;14.00;;;;;;;13.99;83.61;99802.45;124762;1099;104188;-78
2023/04/14 07:30:09;;;;;;;;;;;;;;;14.08;81.83;99806.95;125395;1099;102794;-79
2023/04/14 07:32:42;;;;;;;26.17;12.83;;;;;;;14.19;84.68;99807.94;125142;1099;105485;-75
2023/04/14 07:35:22;;;;;;;28.30;14.40;;;;;;;14.35;85.04;99803.68;125566;1099;104249;-76
2023/04/14 07:37:57;;;;;;;25.53;13.07;;;;;;;14.61;84.86;99800.43;125382;1099;102097;-78
2023/04/14 07:40:31;;;;;;;24.30;13.67;;;;;;;14.92;84.26;99806.82;124963;1099;102738;-79
2023/04/14 07:43:17;;;;;;;22.97;12.67;;;;;;;15.18;85.03;99811.41;124945;1102;103976;-81
2023/04/14 07:45:53;;;;;;;22.73;12.07;;;;;;;15.27;82.89;99801.76;125726;1102;104290;-78
2023/04/14 07:48:28;;;;;;;25.13;11.83;;;;;;;15.55;84.00;99801.90;124868;1100;104233;-79
2023/04/14 07:51:01;;;;;;;26.43;11.17;;;;;;;15.77;83.29;99807.31;125132;1098;104111;-76
2023/04/14 07:53:43;;;;;;;19.87;9.70;;;;;;;15.77;82.46;99804.66;124987;1099;102981;-74
2023/04/14 07:56:15;;;;;;;23.43;10.67;;;;;;;15.69;80.34;99815.17;124596;1100;104293;-74
2023/04/14 07:58:50;;;;;;;19.57;10.20;;;;;;;15.68;81.62;99817.81;124659;1099;104197;-77
2023/04/14 08:01:30;;;;;;;18.87;9.40;;;;;;;15.74;81.53;99810.78;124965;1099;104223;-79
2023/04/14 08:04:05;;;;;;;20.30;10.47;;;;;;;15.83;81.05;99803.77;125773;1099;102512;-77
2023/04/14 08:06:53;;;;;;;;;;;;;;;;;;;;;
2023/04/14 08:09:29;;;;;;;17.03;8.70;;;;;;;15.89;78.28;99803.80;124560;1099;103565;-78
2023/04/14 08:12:06;;;;;;;18.17;8.40;;;;;;;15.76;75.92;99808.14;124944;1102;104184;-76
2023/04/14 08:14:39;;;;;;;15.65;7.30;;;;;;;15.71;78.15;99801.95;124520;1099;104296;-76
2023/04/14 08:17:13;;;;;;;16.00;7.77;;;;;;;15.71;75.37;99800.19;125076;1099;102382;-78
2023/04/14 08:22:31;;;;;;;14.53;7.53;;;;;;;15.97;75.46;99802.05;124819;1099;102943;-75
2023/04/14 08:25:05;;;;;;;14.90;7.43;;;;;;;16.01;74.30;99802.95;124430;1102;104238;-77
2023/04/14 08:27:38;;;;;;;;;;;;;;;16.06;62.54;99801.20;125080;1099;102229;-80
2023/04/14 08:30:17;;;;;;;13.20;7.17;;;;;;;16.10;71.69;99803.85;125681;1102;102116;-79
2023/04/14 08:32:52;;;;;;;14.07;7.30;;;;;;;16.11;71.59;99795.05;125853;1099;104612;-81
2023/04/14 08:35:27;;;;;;;15.47;7.33;;;;;;;16.14;69.96;99800.34;125767;1099;102474;-79
2023/04/14 08:38:07;;;;;;;17.43;7.83;;;;;;;16.20;71.82;99802.09;125355;1099;104130;-78
2023/04/14 08:41:03;;;;;;;15.00;7.13;;;;;;;16.23;72.90;99799.45;124508;1102;102266;-79
2023/04/14 08:43:47;;;;;;;17.67;7.37;;;;;;;16.27;72.55;99803.88;126533;1099;101752;-81
2023/04/14 08:46:35;;;;;;;16.70;7.50;;;;;;;16.24;72.69;99800.36;126236;1099;103855;-81
2023/04/14 08:49:41;;;;;;;13.87;6.47;;;;;;;16.15;72.04;99790.63;126484;1098;102882;-78
2023/04/14 08:52:24;;;;;;;12.83;7.20;;;;;;;16.04;69.27;99797.67;126480;1098;101503;-78
2023/04/14 08:55:31;;;;;;;15.90;7.43;;;;;;;16.03;69.82;99796.77;126541;1098;103100;-80
2023/04/14 08:58:12;;;;;;;16.30;8.00;;;;;;;15.99;70.57;99792.38;126169;1099;102237;-80
2023/04/14 09:01:10;;;;;;;13.30;6.73;;;;;;;16.00;69.05;99794.12;126450;1099;102881;-80
2023/04/14 09:03:49;;;;;;;14.57;7.17;;;;;;;16.09;69.42;99796.78;126692;1098;102072;-79
2023/04/14 09:06:26;;;;;;;17.27;6.90;;;;;;;16.18;69.20;99794.16;126583;1098;102169;-79
2023/04/14 09:09:02;;;;;;;16.73;7.40;;;;;;;16.26;69.74;99788.88;126188;1101;102001;-79
2023/04/14 09:11:38;;;;;;;14.40;7.23;;;;;;;16.41;65.15;99806.55;126563;1099;101898;-77
2023/04/14 09:14:11;;;;;;;13.70;7.43;;;;;;;16.53;66.96;99797.70;126634;1098;102928;-78
2023/04/14 09:16:47;;;;;;;15.57;7.27;;;;;;;16.66;65.62;99799.48;126135;1099;102734;-79
2023/04/14 09:19:24;;;;;;;13.57;7.10;;;;;;;16.79;66.59;99799.48;126683;1099;102289;-79
2023/04/14 09:21:55;;;;;;;;;;;;;;;16.84;64.25;99800.34;126940;1098;102752;-79
2023/04/14 09:24:32;;;;;;;16.67;6.50;;;;;;;16.94;65.85;99798.59;126790;1099;102287;-81
2023/04/14 09:27:05;;;;;;;13.60;7.03;;;;;;;17.05;65.29;99799.48;126787;1098;101941;-78
2023/04/14 09:29:39;;;;;;;14.10;6.47;;;;;;;17.19;65.88;99795.02;125689;1099;103306;-79
2023/04/14 09:32:11;;;;;;;12.45;6.33;;;;;;;17.31;64.70;99793.22;125211;1099;103423;-78
2023/04/14 09:34:53;;;;;;;13.33;6.57;;;;;;;17.42;65.89;99791.41;124867;1102;104303;-79
2023/04/14 09:37:24;;;;;;;11.50;6.40;;;;;;;17.64;65.65;99789.57;124998;1099;104178;-80
2023/04/14 09:39:56;;;;;;;14.23;7.47;;;;;;;17.79;65.19;99786.84;124941;1102;103732;-78
2023/04/14 09:42:45;;;;;;;14.20;7.27;;;;;;;17.94;65.55;99785.02;125028;1099;104061;-78
2023/04/14 09:45:18;;;;;;;13.57;7.20;;;;;;;18.10;64.68;99791.11;125269;1099;102831;-81
2023/04/14 09:48:06;;;;;;;13.83;7.17;;;;;;;18.20;64.27;99792.83;125170;1099;104245;-80
2023/04/14 09:51:00;;;;;;;14.93;6.90;;;;;;;18.33;64.40;99788.30;124999;1102;102945;-81
2023/04/14 09:53:34;;;;;;;14.40;7.30;;;;;;;18.50;64.57;99782.86;125201;1099;120274;-83
2023/04/14 09:56:09;;;;;;;16.90;7.90;;;;;;;18.61;64.75;99782.77;125593;1099;104226;-84
2023/04/14 09:58:43;;;;;;;13.67;7.50;;;;;;;18.66;64.59;99775.63;125507;1099;102568;-80
2023/04/14 10:01:15;;;;;;;15.75;7.55;;;;;;;18.52;61.74;99778.41;125515;1098;102405;-79
2023/04/14 10:03:50;;;;;;;13.80;7.33;;;;;;;18.27;62.29;99767.10;126171;1102;102693;-79
2023/04/14 10:06:25;;;;;;;15.97;7.47;;;;;;;18.18;63.24;99767.16;126502;1098;102482;-78
2023/04/14 10:08:58;;;;;;;15.57;7.77;;;;;;;18.16;62.14;99758.34;126486;1099;101959;-80
2023/04/14 10:11:31;;;;;;;17.03;8.10;;;;;;;18.17;62.29;99765.39;126425;1099;102698;-80
2023/04/14 10:14:04;;;;;;;13.33;6.90;;;;;;;18.03;62.14;99757.52;126847;1098;111534;-79
2023/04/14 10:16:36;;;;;;;14.03;7.17;;;;;;;17.90;62.45;99757.63;126799;1098;102222;-82
2023/04/14 10:19:08;;;;;;;15.60;8.33;;;;;;;17.78;61.12;99762.97;117930;1098;10001798;-80
2023/04/14 10:21:41;;;;;;;15.43;7.50;;;;;;;17.72;61.77;99760.35;126831;1098;102646;-81
2023/04/14 10:24:15;;;;;;;16.07;7.45;;;;;;;17.56;60.05;99760.42;126448;1098;102021;-79
2023/04/14 10:26:48;;;;;;;17.73;8.08;;;;;;;17.54;60.83;99756.00;126392;1099;101868;-79
2023/04/14 10:29:22;;;;;;;15.77;7.73;;;;;;;17.49;60.82;99769.28;126455;1098;103739;-79
2023/04/14 10:32:05;;;;;;;16.30;8.00;;;;;;;17.50;61.19;99764.85;126268;1099;102029;-80
2023/04/14 10:35:00;;;;;;;16.03;7.97;;;;;;;17.48;61.27;99763.98;126756;1099;102291;-81
2023/04/14 10:37:33;;;;;;;13.27;7.27;;;;;;;17.50;60.86;99754.24;126734;1098;102326;-82
2023/04/14 10:40:10;;;;;;;;;;;;;;;17.55;56.58;99761.30;126532;1098;102630;-81
2023/04/14 10:42:57;;;;;;;16.87;8.40;;;;;;;17.56;60.21;99770.13;125884;1100;102794;-78
2023/04/14 10:45:29;;;;;;;16.70;8.03;;;;;;;17.60;59.04;99764.80;126231;1099;107813;-78
2023/04/14 10:48:14;;;;;;;15.77;7.97;;;;;;;17.82;58.92;99764.70;126266;1099;102428;-82
2023/04/14 10:50:49;;;;;;;20.20;8.00;;;;;;;18.07;60.05;99775.20;125967;1099;102699;-78
2023/04/14 10:53:24;;;;;;;16.73;8.00;;;;;;;18.29;60.20;99775.92;126413;1099;102522;-81
2023/04/14 10:55:56;;;;;;;15.20;7.87;;;;;;;18.54;60.33;99765.11;126513;1098;102992;-77
2023/04/14 10:58:31;;;;;;;16.65;8.28;;;;;;;18.69;60.02;99768.50;117592;1099;10001657;-79
2023/04/14 11:01:24;;;;;;;16.27;7.80;;;;;;;18.84;59.42;99770.19;126347;1098;102211;-82
2023/04/14 11:03:58;;;;;;;14.80;8.20;;;;;;;19.08;58.74;99783.25;126453;1099;102660;-79
2023/04/14 11:06:52;;;;;;;18.00;8.77;;;;;;;19.15;58.68;99774.28;126424;1099;102000;-79
2023/04/14 11:09:37;;;;;;;18.73;9.18;;;;;;;19.21;58.17;99768.90;126311;1099;102156;-79
2023/04/14 11:12:30;;;;;;;15.80;7.90;;;;;;;19.24;58.06;99768.86;126040;1099;101892;-79
2023/04/14 11:15:09;;;;;;;17.17;7.57;;;;;;;19.35;58.38;99758.10;126114;1099;102967;-78
2023/04/14 11:17:42;;;;;;;17.45;8.25;;;;;;;19.53;56.21;99771.18;117387;1099;10001625;-77
2023/04/14 11:20:18;;;;;;;14.23;7.63;;;;;;;19.67;56.41;99772.80;126477;1099;102630;-77
2023/04/14 11:23:02;;;;;;;19.13;7.43;;;;;;;19.69;56.91;99769.19;126007;1099;102678;-79
2023/04/14 11:25:40;;;;;;;13.13;7.07;;;;;;;19.62;56.95;99763.97;126477;1099;102604;-80
2023/04/14 11:28:15;;;;;;;14.83;7.57;;;;;;;19.57;57.45;99774.67;126483;1099;102702;-80
2023/04/14 11:30:50;;;;;;;16.40;7.73;;;;;;;19.50;56.46;99767.69;126351;1099;103202;-80
2023/04/14 11:33:29;;;;;;;17.77;7.60;;;;;;;19.43;56.56;99764.23;126139;1099;102853;-79
2023/04/14 11:36:06;;;;;;;13.50;6.60;;;;;;;19.45;57.18;99766.88;126296;1098;102103;-80
2023/04/14 11:38:42;;;;;;;14.57;7.20;;;;;;;19.51;55.96;99757.02;126662;1098;102714;-80
2023/04/14 11:41:19;;;;;;;15.03;7.37;;;;;;;19.53;55.56;99757.00;126321;1099;102932;-78
2023/04/14 11:43:50;;;;;;;14.87;7.17;;;;;;;19.38;54.50;99758.97;126468;1098;102712;-78
2023/04/14 11:46:22;;;;;;;12.07;6.77;;;;;;;19.39;55.84;99752.72;125965;1099;102847;-81
2023/04/14 11:48:57;;;;;;;10.87;6.50;;;;;;;19.43;55.83;99756.25;126084;1099;102350;-79
2023/04/14 11:51:32;;;;;;;15.03;7.00;;;;;;;19.41;55.18;99750.05;126103;1099;102829;-79